Lake Tapps, Washington
Current Conditions -  °F | °C
As of 4:23 AM on Monday 22 Dec 2014 (Local Time) from KTCM Reporting Station
Broken Clouds Broken Clouds  
Wind Chill: 40°   Ceiling: 1800
Heat Index: 43°   Visibility: 10mi
Dew Point: 43°   Wind: 5mph
Humidity: 100%   Direction: 100°E
Pressure: 30.23"   Gusts: NA
Location:  47.1874°N, 122.164°W
Report Text: KTCM 221223Z AUTO 10004KT 10SM BKN018 06/06 A3023 RMK AO2 VIS 1 1/4 RWY34
Loading
Personal Weather Stations






























Interactive Weather Map New forecast layout! Learn more

10-Day Weather Forecast

Advertisements
Track Severe Weather on mobile